sensor_id;sensor_type;location;lat;lon;timestamp;temperature;humidity
59309;DHT22;48433;53.016;-2.260;2023-03-16T00:02:20;7.30;99.90
59309;DHT22;48433;53.016;-2.260;2023-03-16T00:04:48;7.50;99.90
59309;DHT22;48433;53.016;-2.260;2023-03-16T00:07:17;7.40;99.90
59309;DHT22;48433;53.016;-2.260;2023-03-16T00:09:45;7.40;99.90
59309;DHT22;48433;53.016;-2.260;2023-03-16T00:12:15;7.40;99.90
59309;DHT22;48433;53.016;-2.260;2023-03-16T00:14:45;7.40;99.90
59309;DHT22;48433;53.016;-2.260;2023-03-16T00:17:16;7.40;99.90
59309;DHT22;48433;53.016;-2.260;2023-03-16T00:19:52;7.50;99.90
59309;DHT22;48433;53.016;-2.260;2023-03-16T00:22:28;7.20;99.90
59309;DHT22;48433;53.016;-2.260;2023-03-16T00:27:25;7.50;99.90
59309;DHT22;48433;53.016;-2.260;2023-03-16T00:29:53;7.60;99.90
59309;DHT22;48433;53.016;-2.260;2023-03-16T00:34:55;7.80;99.90
59309;DHT22;48433;53.016;-2.260;2023-03-16T00:37:24;7.60;99.90
59309;DHT22;48433;53.016;-2.260;2023-03-16T00:39:53;7.60;99.90
59309;DHT22;48433;53.016;-2.260;2023-03-16T00:42:26;7.80;99.90
59309;DHT22;48433;53.016;-2.260;2023-03-16T00:44:55;7.60;99.90
59309;DHT22;48433;53.016;-2.260;2023-03-16T00:47:29;7.70;99.90
59309;DHT22;48433;53.016;-2.260;2023-03-16T00:49:57;7.60;99.90
59309;DHT22;48433;53.016;-2.260;2023-03-16T00:52:25;7.80;99.90
59309;DHT22;48433;53.016;-2.260;2023-03-16T00:54:54;7.70;99.90
59309;DHT22;48433;53.016;-2.260;2023-03-16T00:57:24;7.70;99.90
59309;DHT22;48433;53.016;-2.260;2023-03-16T01:04:52;7.80;99.90
59309;DHT22;48433;53.016;-2.260;2023-03-16T01:07:21;7.80;99.90
59309;DHT22;48433;53.016;-2.260;2023-03-16T01:12:18;7.80;99.90
59309;DHT22;48433;53.016;-2.260;2023-03-16T01:17:16;7.90;99.90
59309;DHT22;48433;53.016;-2.260;2023-03-16T01:19:44;7.80;99.90
59309;DHT22;48433;53.016;-2.260;2023-03-16T01:24:41;8.00;99.90
59309;DHT22;48433;53.016;-2.260;2023-03-16T01:29:37;7.90;99.90
59309;DHT22;48433;53.016;-2.260;2023-03-16T01:32:06;8.00;99.90
59309;DHT22;48433;53.016;-2.260;2023-03-16T01:34:33;8.10;99.90
59309;DHT22;48433;53.016;-2.260;2023-03-16T01:42:10;8.10;99.90
59309;DHT22;48433;53.016;-2.260;2023-03-16T01:44:51;8.10;99.90
59309;DHT22;48433;53.016;-2.260;2023-03-16T01:47:20;8.20;99.90
59309;DHT22;48433;53.016;-2.260;2023-03-16T01:49:51;8.10;99.90
59309;DHT22;48433;53.016;-2.260;2023-03-16T01:52:27;8.20;99.90
59309;DHT22;48433;53.016;-2.260;2023-03-16T01:55:03;8.20;99.90
59309;DHT22;48433;53.016;-2.260;2023-03-16T02:00:16;8.40;99.90
59309;DHT22;48433;53.016;-2.260;2023-03-16T02:03:14;8.40;99.90
59309;DHT22;48433;53.016;-2.260;2023-03-16T02:06:00;8.40;99.90
59309;DHT22;48433;53.016;-2.260;2023-03-16T02:08:31;8.50;99.90
59309;DHT22;48433;53.016;-2.260;2023-03-16T02:10:59;8.50;99.90
59309;DHT22;48433;53.016;-2.260;2023-03-16T02:13:48;8.40;99.90
59309;DHT22;48433;53.016;-2.260;2023-03-16T02:16:17;8.50;99.90
59309;DHT22;48433;53.016;-2.260;2023-03-16T02:18:49;8.50;99.90
59309;DHT22;48433;53.016;-2.260;2023-03-16T02:23:51;8.60;99.90
59309;DHT22;48433;53.016;-2.260;2023-03-16T02:29:38;8.50;99.90
59309;DHT22;48433;53.016;-2.260;2023-03-16T02:32:06;8.50;99.90
59309;DHT22;48433;53.016;-2.260;2023-03-16T02:34:35;8.80;99.90
59309;DHT22;48433;53.016;-2.260;2023-03-16T02:37:03;8.50;99.90
59309;DHT22;48433;53.016;-2.260;2023-03-16T02:42:01;8.80;99.90
59309;DHT22;48433;53.016;-2.260;2023-03-16T02:47:19;8.40;99.90
59309;DHT22;48433;53.016;-2.260;2023-03-16T02:57:12;8.60;99.90
59309;DHT22;48433;53.016;-2.260;2023-03-16T03:09:51;8.80;99.90
59309;DHT22;48433;53.016;-2.260;2023-03-16T03:14:48;9.20;99.90
59309;DHT22;48433;53.016;-2.260;2023-03-16T03:17:19;9.00;99.90
59309;DHT22;48433;53.016;-2.260;2023-03-16T03:19:47;8.80;99.90
59309;DHT22;48433;53.016;-2.260;2023-03-16T03:24:45;9.00;99.90
59309;DHT22;48433;53.016;-2.260;2023-03-16T03:27:12;9.10;99.90
59309;DHT22;48433;53.016;-2.260;2023-03-16T03:29:42;9.00;99.90
59309;DHT22;48433;53.016;-2.260;2023-03-16T03:32:11;9.00;99.90
59309;DHT22;48433;53.016;-2.260;2023-03-16T03:34:38;9.10;99.90
59309;DHT22;48433;53.016;-2.260;2023-03-16T03:39:35;9.10;99.90
59309;DHT22;48433;53.016;-2.260;2023-03-16T03:47:03;9.50;99.90
59309;DHT22;48433;53.016;-2.260;2023-03-16T03:52:00;9.10;99.90
59309;DHT22;48433;53.016;-2.260;2023-03-16T03:54:31;9.00;99.90
59309;DHT22;48433;53.016;-2.260;2023-03-16T03:57:03;9.10;99.90
59309;DHT22;48433;53.016;-2.260;2023-03-16T03:59:31;8.90;99.90
59309;DHT22;48433;53.016;-2.260;2023-03-16T04:02:10;9.20;99.90
59309;DHT22;48433;53.016;-2.260;2023-03-16T04:07:15;9.10;99.90
59309;DHT22;48433;53.016;-2.260;2023-03-16T04:15:11;9.20;99.90
59309;DHT22;48433;53.016;-2.260;2023-03-16T04:25:25;9.20;99.90
59309;DHT22;48433;53.016;-2.260;2023-03-16T04:33:02;9.20;99.90
59309;DHT22;48433;53.016;-2.260;2023-03-16T04:35:30;9.20;99.90
59309;DHT22;48433;53.016;-2.260;2023-03-16T04:40:36;9.40;99.90
59309;DHT22;48433;53.016;-2.260;2023-03-16T04:43:10;9.10;99.90
59309;DHT22;48433;53.016;-2.260;2023-03-16T04:45:40;9.40;99.90
59309;DHT22;48433;53.016;-2.260;2023-03-16T04:48:08;9.30;99.90
59309;DHT22;48433;53.016;-2.260;2023-03-16T04:53:05;9.40;99.90
59309;DHT22;48433;53.016;-2.260;2023-03-16T05:00:33;9.30;99.90
59309;DHT22;48433;53.016;-2.260;2023-03-16T05:03:07;9.40;99.90
59309;DHT22;48433;53.016;-2.260;2023-03-16T05:05:37;9.20;99.90
59309;DHT22;48433;53.016;-2.260;2023-03-16T05:08:05;9.30;99.90
59309;DHT22;48433;53.016;-2.260;2023-03-16T05:10:35;9.00;99.90
59309;DHT22;48433;53.016;-2.260;2023-03-16T05:15:33;9.40;99.90
59309;DHT22;48433;53.016;-2.260;2023-03-16T05:18:15;9.30;99.90
59309;DHT22;48433;53.016;-2.260;2023-03-16T05:20:42;9.30;99.90
59309;DHT22;48433;53.016;-2.260;2023-03-16T05:23:11;9.30;99.90
59309;DHT22;48433;53.016;-2.260;2023-03-16T05:25:46;9.30;99.90
59309;DHT22;48433;53.016;-2.260;2023-03-16T05:30:50;9.40;99.90
59309;DHT22;48433;53.016;-2.260;2023-03-16T05:35:58;9.70;99.90
59309;DHT22;48433;53.016;-2.260;2023-03-16T05:38:26;9.20;99.90
59309;DHT22;48433;53.016;-2.260;2023-03-16T05:40:54;9.20;99.90
59309;DHT22;48433;53.016;-2.260;2023-03-16T05:43:43;9.20;99.90
59309;DHT22;48433;53.016;-2.260;2023-03-16T05:46:13;9.40;99.90
59309;DHT22;48433;53.016;-2.260;2023-03-16T05:53:41;9.00;99.90
59309;DHT22;48433;53.016;-2.260;2023-03-16T05:56:16;9.10;99.90
59309;DHT22;48433;53.016;-2.260;2023-03-16T06:03:43;9.10;99.90
59309;DHT22;48433;53.016;-2.260;2023-03-16T06:06:18;9.10;99.90
59309;DHT22;48433;53.016;-2.260;2023-03-16T06:09:01;9.00;99.90
59309;DHT22;48433;53.016;-2.260;2023-03-16T06:11:30;9.30;99.90
59309;DHT22;48433;53.016;-2.260;2023-03-16T06:14:00;9.20;99.90
59309;DHT22;48433;53.016;-2.260;2023-03-16T06:16:28;9.10;99.90
59309;DHT22;48433;53.016;-2.260;2023-03-16T06:18:55;9.20;99.90
59309;DHT22;48433;53.016;-2.260;2023-03-16T06:24:00;9.10;99.90
59309;DHT22;48433;53.016;-2.260;2023-03-16T06:26:28;9.20;99.90
59309;DHT22;48433;53.016;-2.260;2023-03-16T06:38:52;8.80;99.90
59309;DHT22;48433;53.016;-2.260;2023-03-16T06:41:43;9.20;99.90
59309;DHT22;48433;53.016;-2.260;2023-03-16T06:44:13;9.30;99.90
59309;DHT22;48433;53.016;-2.260;2023-03-16T06:46:52;9.60;99.90
59309;DHT22;48433;53.016;-2.260;2023-03-16T06:49:19;9.20;99.90
59309;DHT22;48433;53.016;-2.260;2023-03-16T06:51:48;9.20;99.90
59309;DHT22;48433;53.016;-2.260;2023-03-16T06:56:43;9.20;99.90
59309;DHT22;48433;53.016;-2.260;2023-03-16T06:59:12;9.20;99.90
59309;DHT22;48433;53.016;-2.260;2023-03-16T07:06:37;9.20;99.90
59309;DHT22;48433;53.016;-2.260;2023-03-16T07:09:05;9.20;99.90
59309;DHT22;48433;53.016;-2.260;2023-03-16T07:16:31;9.30;99.90
59309;DHT22;48433;53.016;-2.260;2023-03-16T07:21:31;9.20;99.90
59309;DHT22;48433;53.016;-2.260;2023-03-16T07:24:09;9.20;99.90
59309;DHT22;48433;53.016;-2.260;2023-03-16T07:26:38;9.30;99.90
59309;DHT22;48433;53.016;-2.260;2023-03-16T07:29:07;9.30;99.90
59309;DHT22;48433;53.016;-2.260;2023-03-16T07:31:36;9.10;99.90
59309;DHT22;48433;53.016;-2.260;2023-03-16T07:34:09;9.20;99.90
59309;DHT22;48433;53.016;-2.260;2023-03-16T07:39:11;9.30;99.90
59309;DHT22;48433;53.016;-2.260;2023-03-16T07:41:41;9.20;99.90
59309;DHT22;48433;53.016;-2.260;2023-03-16T07:44:30;9.30;99.90
59309;DHT22;48433;53.016;-2.260;2023-03-16T07:51:58;9.30;99.90
59309;DHT22;48433;53.016;-2.260;2023-03-16T07:57:04;9.30;99.90
59309;DHT22;48433;53.016;-2.260;2023-03-16T07:59:38;9.30;99.90
59309;DHT22;48433;53.016;-2.260;2023-03-16T08:02:14;9.40;99.90
59309;DHT22;48433;53.016;-2.260;2023-03-16T08:04:43;9.40;99.90
59309;DHT22;48433;53.016;-2.260;2023-03-16T08:07:14;9.40;99.90
59309;DHT22;48433;53.016;-2.260;2023-03-16T08:14:58;9.60;99.90
59309;DHT22;48433;53.016;-2.260;2023-03-16T08:17:30;9.70;99.90
59309;DHT22;48433;53.016;-2.260;2023-03-16T08:20:00;9.60;99.90
59309;DHT22;48433;53.016;-2.260;2023-03-16T08:24:57;9.50;99.90
59309;DHT22;48433;53.016;-2.260;2023-03-16T08:27:25;9.60;99.90
59309;DHT22;48433;53.016;-2.260;2023-03-16T08:29:59;9.70;99.90
59309;DHT22;48433;53.016;-2.260;2023-03-16T08:32:33;9.60;99.90
59309;DHT22;48433;53.016;-2.260;2023-03-16T08:47:40;9.70;99.90
59309;DHT22;48433;53.016;-2.260;2023-03-16T08:50:11;9.80;99.90
59309;DHT22;48433;53.016;-2.260;2023-03-16T08:52:41;9.80;99.90
59309;DHT22;48433;53.016;-2.260;2023-03-16T08:55:10;9.80;99.90
59309;DHT22;48433;53.016;-2.260;2023-03-16T08:57:37;10.00;99.90
59309;DHT22;48433;53.016;-2.260;2023-03-16T09:00:07;9.70;99.90
59309;DHT22;48433;53.016;-2.260;2023-03-16T09:02:41;9.80;99.90
59309;DHT22;48433;53.016;-2.260;2023-03-16T09:05:11;9.60;99.90
59309;DHT22;48433;53.016;-2.260;2023-03-16T09:07:40;9.70;99.90
59309;DHT22;48433;53.016;-2.260;2023-03-16T09:10:09;9.90;99.90
59309;DHT22;48433;53.016;-2.260;2023-03-16T09:12:41;9.80;99.90
59309;DHT22;48433;53.016;-2.260;2023-03-16T09:15:11;9.90;99.90
59309;DHT22;48433;53.016;-2.260;2023-03-16T09:20:08;10.00;99.90
59309;DHT22;48433;53.016;-2.260;2023-03-16T09:22:57;9.90;99.90
59309;DHT22;48433;53.016;-2.260;2023-03-16T09:27:53;10.10;99.90
59309;DHT22;48433;53.016;-2.260;2023-03-16T09:32:49;10.20;99.90
59309;DHT22;48433;53.016;-2.260;2023-03-16T09:35:17;10.20;99.90
59309;DHT22;48433;53.016;-2.260;2023-03-16T09:37:45;10.20;99.90
59309;DHT22;48433;53.016;-2.260;2023-03-16T09:40:32;10.40;99.90
59309;DHT22;48433;53.016;-2.260;2023-03-16T09:48:19;10.50;99.90
59309;DHT22;48433;53.016;-2.260;2023-03-16T09:50:48;10.50;99.90
59309;DHT22;48433;53.016;-2.260;2023-03-16T09:53:20;10.50;99.90
59309;DHT22;48433;53.016;-2.260;2023-03-16T09:58:24;10.50;99.90
59309;DHT22;48433;53.016;-2.260;2023-03-16T10:06:27;10.70;99.90
59309;DHT22;48433;53.016;-2.260;2023-03-16T10:09:18;10.70;99.90
59309;DHT22;48433;53.016;-2.260;2023-03-16T10:11:51;10.70;99.90
59309;DHT22;48433;53.016;-2.260;2023-03-16T10:17:16;10.70;99.90
59309;DHT22;48433;53.016;-2.260;2023-03-16T10:20:13;10.70;99.90
59309;DHT22;48433;53.016;-2.260;2023-03-16T10:22:46;10.70;99.90
59309;DHT22;48433;53.016;-2.260;2023-03-16T10:25:38;10.80;99.90
59309;DHT22;48433;53.016;-2.260;2023-03-16T10:28:14;10.80;99.90
59309;DHT22;48433;53.016;-2.260;2023-03-16T10:30:42;10.90;99.90
59309;DHT22;48433;53.016;-2.260;2023-03-16T10:33:25;10.80;99.90
59309;DHT22;48433;53.016;-2.260;2023-03-16T10:36:12;11.00;99.90
59309;DHT22;48433;53.016;-2.260;2023-03-16T10:38:47;11.10;99.90
59309;DHT22;48433;53.016;-2.260;2023-03-16T10:43:50;11.00;99.90
59309;DHT22;48433;53.016;-2.260;2023-03-16T10:48:57;11.10;99.90
59309;DHT22;48433;53.016;-2.260;2023-03-16T10:51:29;11.20;99.90
59309;DHT22;48433;53.016;-2.260;2023-03-16T10:54:37;11.20;99.90
59309;DHT22;48433;53.016;-2.260;2023-03-16T10:57:22;11.40;99.90
59309;DHT22;48433;53.016;-2.260;2023-03-16T10:59:54;11.50;99.90
59309;DHT22;48433;53.016;-2.260;2023-03-16T11:02:30;12.00;99.90
59309;DHT22;48433;53.016;-2.260;2023-03-16T11:07:27;12.20;99.90
59309;DHT22;48433;53.016;-2.260;2023-03-16T11:15:11;11.90;99.90
59309;DHT22;48433;53.016;-2.260;2023-03-16T11:20:24;11.60;99.90
59309;DHT22;48433;53.016;-2.260;2023-03-16T11:22:52;11.60;99.90
59309;DHT22;48433;53.016;-2.260;2023-03-16T11:25:27;11.50;99.90
59309;DHT22;48433;53.016;-2.260;2023-03-16T11:28:12;11.50;99.90
59309;DHT22;48433;53.016;-2.260;2023-03-16T11:30:50;11.50;99.90
59309;DHT22;48433;53.016;-2.260;2023-03-16T11:36:22;11.70;99.90
59309;DHT22;48433;53.016;-2.260;2023-03-16T11:39:09;11.80;99.90
59309;DHT22;48433;53.016;-2.260;2023-03-16T11:47:02;12.30;99.90
59309;DHT22;48433;53.016;-2.260;2023-03-16T12:01:00;12.60;99.90
59309;DHT22;48433;53.016;-2.260;2023-03-16T12:07:11;12.50;99.90
59309;DHT22;48433;53.016;-2.260;2023-03-16T12:14:36;12.30;99.90
59309;DHT22;48433;53.016;-2.260;2023-03-16T12:17:19;12.20;99.90
59309;DHT22;48433;53.016;-2.260;2023-03-16T12:19:53;12.20;99.90
59309;DHT22;48433;53.016;-2.260;2023-03-16T12:22:34;12.20;99.90
59309;DHT22;48433;53.016;-2.260;2023-03-16T12:25:05;12.20;99.90
59309;DHT22;48433;53.016;-2.260;2023-03-16T12:27:39;12.30;99.90
59309;DHT22;48433;53.016;-2.260;2023-03-16T12:39:05;12.10;99.90
59309;DHT22;48433;53.016;-2.260;2023-03-16T12:50:33;12.20;99.90
59309;DHT22;48433;53.016;-2.260;2023-03-16T12:53:00;12.20;99.90
59309;DHT22;48433;53.016;-2.260;2023-03-16T12:58:06;12.10;99.90
59309;DHT22;48433;53.016;-2.260;2023-03-16T13:00:40;12.10;99.90
59309;DHT22;48433;53.016;-2.260;2023-03-16T13:03:19;12.20;99.90
59309;DHT22;48433;53.016;-2.260;2023-03-16T13:05:58;12.10;99.90
59309;DHT22;48433;53.016;-2.260;2023-03-16T13:08:27;12.10;99.90
59309;DHT22;48433;53.016;-2.260;2023-03-16T13:11:09;12.10;99.90
59309;DHT22;48433;53.016;-2.260;2023-03-16T13:14:03;11.90;99.90
59309;DHT22;48433;53.016;-2.260;2023-03-16T13:16:36;12.00;99.90
59309;DHT22;48433;53.016;-2.260;2023-03-16T13:19:23;12.00;99.90
59309;DHT22;48433;53.016;-2.260;2023-03-16T13:22:01;11.90;99.90
59309;DHT22;48433;53.016;-2.260;2023-03-16T13:24:38;11.90;99.90
59309;DHT22;48433;53.016;-2.260;2023-03-16T13:32:23;11.90;99.90
59309;DHT22;48433;53.016;-2.260;2023-03-16T13:34:57;11.80;99.90
59309;DHT22;48433;53.016;-2.260;2023-03-16T13:37:27;11.70;99.90
59309;DHT22;48433;53.016;-2.260;2023-03-16T13:40:00;11.80;99.90
59309;DHT22;48433;53.016;-2.260;2023-03-16T13:42:30;11.80;99.90
59309;DHT22;48433;53.016;-2.260;2023-03-16T13:45:10;11.90;99.90
59309;DHT22;48433;53.016;-2.260;2023-03-16T13:47:42;11.70;99.90
59309;DHT22;48433;53.016;-2.260;2023-03-16T13:50:12;11.80;99.90
59309;DHT22;48433;53.016;-2.260;2023-03-16T13:55:20;11.80;99.90
59309;DHT22;48433;53.016;-2.260;2023-03-16T13:57:49;11.80;99.90
59309;DHT22;48433;53.016;-2.260;2023-03-16T14:02:54;11.70;99.90
59309;DHT22;48433;53.016;-2.260;2023-03-16T14:05:28;11.80;99.90
59309;DHT22;48433;53.016;-2.260;2023-03-16T14:07:57;11.90;99.90
59309;DHT22;48433;53.016;-2.260;2023-03-16T14:10:31;11.80;99.90
59309;DHT22;48433;53.016;-2.260;2023-03-16T14:13:08;11.80;99.90
59309;DHT22;48433;53.016;-2.260;2023-03-16T14:15:36;11.80;99.90
59309;DHT22;48433;53.016;-2.260;2023-03-16T14:18:19;11.80;99.90
59309;DHT22;48433;53.016;-2.260;2023-03-16T14:20:53;11.70;99.90
59309;DHT22;48433;53.016;-2.260;2023-03-16T14:23:26;11.70;99.90
59309;DHT22;48433;53.016;-2.260;2023-03-16T14:25:56;11.70;99.90
59309;DHT22;48433;53.016;-2.260;2023-03-16T14:28:31;11.60;99.90
59309;DHT22;48433;53.016;-2.260;2023-03-16T14:31:09;11.60;99.90
59309;DHT22;48433;53.016;-2.260;2023-03-16T14:33:40;11.60;99.90
59309;DHT22;48433;53.016;-2.260;2023-03-16T14:36:18;11.30;99.90
59309;DHT22;48433;53.016;-2.260;2023-03-16T14:38:47;11.50;99.90
59309;DHT22;48433;53.016;-2.260;2023-03-16T14:41:22;11.40;99.90
59309;DHT22;48433;53.016;-2.260;2023-03-16T14:44:00;11.40;99.90
59309;DHT22;48433;53.016;-2.260;2023-03-16T14:46:41;11.30;99.90
59309;DHT22;48433;53.016;-2.260;2023-03-16T14:49:29;11.20;99.90
59309;DHT22;48433;53.016;-2.260;2023-03-16T14:52:07;11.20;99.90
59309;DHT22;48433;53.016;-2.260;2023-03-16T14:57:06;11.20;99.90
59309;DHT22;48433;53.016;-2.260;2023-03-16T14:59:33;11.20;99.90
59309;DHT22;48433;53.016;-2.260;2023-03-16T15:02:01;11.20;99.90
59309;DHT22;48433;53.016;-2.260;2023-03-16T15:04:34;11.40;99.90
59309;DHT22;48433;53.016;-2.260;2023-03-16T15:07:17;11.20;99.90
59309;DHT22;48433;53.016;-2.260;2023-03-16T15:09:47;11.20;99.90
59309;DHT22;48433;53.016;-2.260;2023-03-16T15:12:17;11.10;99.90
59309;DHT22;48433;53.016;-2.260;2023-03-16T15:14:46;11.00;99.90
59309;DHT22;48433;53.016;-2.260;2023-03-16T15:22:31;11.10;99.90
59309;DHT22;48433;53.016;-2.260;2023-03-16T15:25:48;11.00;99.90
59309;DHT22;48433;53.016;-2.260;2023-03-16T15:27:51;10.90;99.90
59309;DHT22;48433;53.016;-2.260;2023-03-16T15:30:23;11.00;99.90
59309;DHT22;48433;53.016;-2.260;2023-03-16T15:32:51;10.80;99.90
59309;DHT22;48433;53.016;-2.260;2023-03-16T15:35:19;11.00;99.90
59309;DHT22;48433;53.016;-2.260;2023-03-16T15:37:47;11.00;99.90
59309;DHT22;48433;53.016;-2.260;2023-03-16T15:40:19;10.90;99.90
59309;DHT22;48433;53.016;-2.260;2023-03-16T15:42:48;10.90;99.90
59309;DHT22;48433;53.016;-2.260;2023-03-16T15:45:18;11.00;99.90
59309;DHT22;48433;53.016;-2.260;2023-03-16T15:47:48;10.90;99.90
59309;DHT22;48433;53.016;-2.260;2023-03-16T15:50:18;10.70;99.90
59309;DHT22;48433;53.016;-2.260;2023-03-16T15:55:59;10.50;99.90
59309;DHT22;48433;53.016;-2.260;2023-03-16T15:58:30;10.40;99.90
59309;DHT22;48433;53.016;-2.260;2023-03-16T16:00:59;10.40;99.90
59309;DHT22;48433;53.016;-2.260;2023-03-16T16:05:56;10.40;99.90
59309;DHT22;48433;53.016;-2.260;2023-03-16T16:08:23;10.30;99.90
59309;DHT22;48433;53.016;-2.260;2023-03-16T16:10:51;10.20;99.90
59309;DHT22;48433;53.016;-2.260;2023-03-16T16:13:25;10.20;99.90
59309;DHT22;48433;53.016;-2.260;2023-03-16T16:16:15;10.30;99.90
59309;DHT22;48433;53.016;-2.260;2023-03-16T16:18:45;10.10;99.90
59309;DHT22;48433;53.016;-2.260;2023-03-16T16:21:17;10.10;99.90
59309;DHT22;48433;53.016;-2.260;2023-03-16T16:23:46;10.00;99.90
59309;DHT22;48433;53.016;-2.260;2023-03-16T16:26:33;10.10;99.90
59309;DHT22;48433;53.016;-2.260;2023-03-16T16:29:23;10.20;99.90
59309;DHT22;48433;53.016;-2.260;2023-03-16T16:34:21;10.10;99.90
59309;DHT22;48433;53.016;-2.260;2023-03-16T16:36:52;10.10;99.90
59309;DHT22;48433;53.016;-2.260;2023-03-16T16:41:52;10.00;99.90
59309;DHT22;48433;53.016;-2.260;2023-03-16T16:44:23;10.10;99.90
59309;DHT22;48433;53.016;-2.260;2023-03-16T16:46:52;10.10;99.90
59309;DHT22;48433;53.016;-2.260;2023-03-16T16:51:51;10.00;99.90
59309;DHT22;48433;53.016;-2.260;2023-03-16T16:54:28;10.00;99.90
59309;DHT22;48433;53.016;-2.260;2023-03-16T16:56:57;10.10;99.90
59309;DHT22;48433;53.016;-2.260;2023-03-16T16:59:31;10.00;99.90
59309;DHT22;48433;53.016;-2.260;2023-03-16T17:02:00;9.90;99.90
59309;DHT22;48433;53.016;-2.260;2023-03-16T17:04:29;10.00;99.90
59309;DHT22;48433;53.016;-2.260;2023-03-16T17:06:58;10.00;99.90
59309;DHT22;48433;53.016;-2.260;2023-03-16T17:09:28;9.90;99.90
59309;DHT22;48433;53.016;-2.260;2023-03-16T17:11:58;9.90;99.90
59309;DHT22;48433;53.016;-2.260;2023-03-16T17:14:27;9.80;99.90
59309;DHT22;48433;53.016;-2.260;2023-03-16T17:16:59;9.90;99.90
59309;DHT22;48433;53.016;-2.260;2023-03-16T17:19:31;9.80;99.90
59309;DHT22;48433;53.016;-2.260;2023-03-16T17:21:59;9.90;99.90
59309;DHT22;48433;53.016;-2.260;2023-03-16T17:26:57;9.80;99.90
59309;DHT22;48433;53.016;-2.260;2023-03-16T17:32:03;9.90;99.90
59309;DHT22;48433;53.016;-2.260;2023-03-16T17:34:36;9.80;99.90
59309;DHT22;48433;53.016;-2.260;2023-03-16T17:37:11;9.80;99.90
59309;DHT22;48433;53.016;-2.260;2023-03-16T17:39:39;9.80;99.90
59309;DHT22;48433;53.016;-2.260;2023-03-16T17:42:13;9.90;99.90
59309;DHT22;48433;53.016;-2.260;2023-03-16T17:44:45;9.90;99.90
59309;DHT22;48433;53.016;-2.260;2023-03-16T17:47:34;9.90;99.90
59309;DHT22;48433;53.016;-2.260;2023-03-16T17:50:24;10.00;99.90
59309;DHT22;48433;53.016;-2.260;2023-03-16T17:55:24;10.00;99.90
59309;DHT22;48433;53.016;-2.260;2023-03-16T17:57:53;9.90;99.90
59309;DHT22;48433;53.016;-2.260;2023-03-16T18:00:35;10.00;99.90
59309;DHT22;48433;53.016;-2.260;2023-03-16T18:03:09;10.00;99.90
59309;DHT22;48433;53.016;-2.260;2023-03-16T18:08:29;9.90;99.90
59309;DHT22;48433;53.016;-2.260;2023-03-16T18:11:02;10.00;99.90
59309;DHT22;48433;53.016;-2.260;2023-03-16T18:13:34;9.80;99.90
59309;DHT22;48433;53.016;-2.260;2023-03-16T18:16:04;10.00;99.90
59309;DHT22;48433;53.016;-2.260;2023-03-16T18:18:36;9.90;99.90
59309;DHT22;48433;53.016;-2.260;2023-03-16T18:23:34;10.00;99.90
59309;DHT22;48433;53.016;-2.260;2023-03-16T18:26:02;10.00;99.90
59309;DHT22;48433;53.016;-2.260;2023-03-16T18:30:59;10.30;99.90
59309;DHT22;48433;53.016;-2.260;2023-03-16T18:33:38;10.10;99.90
59309;DHT22;48433;53.016;-2.260;2023-03-16T18:38:51;10.10;99.90
59309;DHT22;48433;53.016;-2.260;2023-03-16T18:43:57;10.10;99.90
59309;DHT22;48433;53.016;-2.260;2023-03-16T18:46:31;9.90;99.90
59309;DHT22;48433;53.016;-2.260;2023-03-16T18:49:13;10.10;99.90
59309;DHT22;48433;53.016;-2.260;2023-03-16T18:51:46;10.10;99.90
59309;DHT22;48433;53.016;-2.260;2023-03-16T18:56:47;10.10;99.90
59309;DHT22;48433;53.016;-2.260;2023-03-16T18:59:16;10.10;99.90
59309;DHT22;48433;53.016;-2.260;2023-03-16T19:01:44;10.10;99.90
59309;DHT22;48433;53.016;-2.260;2023-03-16T19:04:20;10.10;99.90
59309;DHT22;48433;53.016;-2.260;2023-03-16T19:06:49;10.10;99.90
59309;DHT22;48433;53.016;-2.260;2023-03-16T19:16:44;10.00;99.90
59309;DHT22;48433;53.016;-2.260;2023-03-16T19:19:13;10.00;99.90
59309;DHT22;48433;53.016;-2.260;2023-03-16T19:24:30;10.10;99.90
59309;DHT22;48433;53.016;-2.260;2023-03-16T19:27:00;10.20;99.90
59309;DHT22;48433;53.016;-2.260;2023-03-16T19:29:30;10.00;99.90
59309;DHT22;48433;53.016;-2.260;2023-03-16T19:32:00;10.10;99.90
59309;DHT22;48433;53.016;-2.260;2023-03-16T19:36:56;10.10;99.90
59309;DHT22;48433;53.016;-2.260;2023-03-16T19:39:23;10.00;99.90
59309;DHT22;48433;53.016;-2.260;2023-03-16T19:41:56;10.10;99.90
59309;DHT22;48433;53.016;-2.260;2023-03-16T19:44:26;10.00;99.90
59309;DHT22;48433;53.016;-2.260;2023-03-16T19:46:55;10.10;99.90
59309;DHT22;48433;53.016;-2.260;2023-03-16T19:49:24;10.40;99.90
59309;DHT22;48433;53.016;-2.260;2023-03-16T19:51:54;10.20;99.90
59309;DHT22;48433;53.016;-2.260;2023-03-16T19:54:26;10.00;99.90
59309;DHT22;48433;53.016;-2.260;2023-03-16T19:56:55;10.10;99.90
59309;DHT22;48433;53.016;-2.260;2023-03-16T19:59:28;10.10;99.90
59309;DHT22;48433;53.016;-2.260;2023-03-16T20:01:57;10.20;99.90
59309;DHT22;48433;53.016;-2.260;2023-03-16T20:04:26;10.20;99.90
59309;DHT22;48433;53.016;-2.260;2023-03-16T20:09:22;10.10;99.90
59309;DHT22;48433;53.016;-2.260;2023-03-16T20:11:49;10.20;99.90
59309;DHT22;48433;53.016;-2.260;2023-03-16T20:14:22;10.10;99.90
59309;DHT22;48433;53.016;-2.260;2023-03-16T20:19:19;10.20;99.90
59309;DHT22;48433;53.016;-2.260;2023-03-16T20:21:50;10.10;99.90
59309;DHT22;48433;53.016;-2.260;2023-03-16T20:24:19;10.00;99.90
59309;DHT22;48433;53.016;-2.260;2023-03-16T20:26:51;10.00;99.90
59309;DHT22;48433;53.016;-2.260;2023-03-16T20:29:28;10.10;99.90
59309;DHT22;48433;53.016;-2.260;2023-03-16T20:31:58;10.10;99.90
59309;DHT22;48433;53.016;-2.260;2023-03-16T20:34:29;10.10;99.90
59309;DHT22;48433;53.016;-2.260;2023-03-16T20:36:58;10.20;99.90
59309;DHT22;48433;53.016;-2.260;2023-03-16T20:39:26;10.20;99.90
59309;DHT22;48433;53.016;-2.260;2023-03-16T20:41:55;10.10;99.90
59309;DHT22;48433;53.016;-2.260;2023-03-16T20:46:52;10.20;99.90
59309;DHT22;48433;53.016;-2.260;2023-03-16T20:51:49;10.20;99.90
59309;DHT22;48433;53.016;-2.260;2023-03-16T20:54:17;10.10;99.90
59309;DHT22;48433;53.016;-2.260;2023-03-16T20:56:45;10.20;99.90
59309;DHT22;48433;53.016;-2.260;2023-03-16T20:59:18;10.00;99.90
59309;DHT22;48433;53.016;-2.260;2023-03-16T21:04:20;10.20;99.90
59309;DHT22;48433;53.016;-2.260;2023-03-16T21:06:48;10.10;99.90
59309;DHT22;48433;53.016;-2.260;2023-03-16T21:09:18;10.10;99.90
59309;DHT22;48433;53.016;-2.260;2023-03-16T21:11:48;10.00;99.90
59309;DHT22;48433;53.016;-2.260;2023-03-16T21:14:19;10.00;99.90
59309;DHT22;48433;53.016;-2.260;2023-03-16T21:16:48;10.10;99.90
59309;DHT22;48433;53.016;-2.260;2023-03-16T21:19:19;10.10;99.90
59309;DHT22;48433;53.016;-2.260;2023-03-16T21:21:47;10.10;99.90
59309;DHT22;48433;53.016;-2.260;2023-03-16T21:24:15;10.10;99.90
59309;DHT22;48433;53.016;-2.260;2023-03-16T21:26:43;10.00;99.90
59309;DHT22;48433;53.016;-2.260;2023-03-16T21:29:17;10.10;99.90
59309;DHT22;48433;53.016;-2.260;2023-03-16T21:31:47;10.20;99.90
59309;DHT22;48433;53.016;-2.260;2023-03-16T21:34:25;10.20;99.90
59309;DHT22;48433;53.016;-2.260;2023-03-16T21:41:52;9.50;99.90
59309;DHT22;48433;53.016;-2.260;2023-03-16T21:44:20;10.20;99.90